sensor_id;sensor_type;location;lat;lon;timestamp;P1;durP1;ratioP1;P2;durP2;ratioP2
9836;SDS011;4957;51.412;6.724;2022-12-07T00:00:25;16.50;;;10.53;;
9836;SDS011;4957;51.412;6.724;2022-12-07T00:02:51;14.93;;;10.97;;
9836;SDS011;4957;51.412;6.724;2022-12-07T00:05:16;18.53;;;11.43;;
9836;SDS011;4957;51.412;6.724;2022-12-07T00:07:42;16.60;;;10.97;;
9836;SDS011;4957;51.412;6.724;2022-12-07T00:10:08;15.87;;;10.33;;
9836;SDS011;4957;51.412;6.724;2022-12-07T00:12:33;14.40;;;11.10;;
9836;SDS011;4957;51.412;6.724;2022-12-07T00:14:59;16.03;;;10.93;;
9836;SDS011;4957;51.412;6.724;2022-12-07T00:17:25;16.60;;;11.20;;
9836;SDS011;4957;51.412;6.724;2022-12-07T00:19:50;18.07;;;11.80;;
9836;SDS011;4957;51.412;6.724;2022-12-07T00:22:16;16.60;;;11.73;;
9836;SDS011;4957;51.412;6.724;2022-12-07T00:24:42;18.80;;;11.50;;
9836;SDS011;4957;51.412;6.724;2022-12-07T00:27:07;16.97;;;10.87;;
9836;SDS011;4957;51.412;6.724;2022-12-07T00:29:33;18.93;;;12.37;;
9836;SDS011;4957;51.412;6.724;2022-12-07T00:31:59;19.97;;;12.13;;
9836;SDS011;4957;51.412;6.724;2022-12-07T00:34:24;16.20;;;9.83;;
9836;SDS011;4957;51.412;6.724;2022-12-07T00:36:50;16.47;;;12.70;;
9836;SDS011;4957;51.412;6.724;2022-12-07T00:39:16;17.77;;;11.97;;
9836;SDS011;4957;51.412;6.724;2022-12-07T00:41:42;16.13;;;11.00;;
9836;SDS011;4957;51.412;6.724;2022-12-07T00:44:08;16.63;;;11.70;;
9836;SDS011;4957;51.412;6.724;2022-12-07T00:46:33;20.63;;;12.17;;
9836;SDS011;4957;51.412;6.724;2022-12-07T00:48:59;18.80;;;11.80;;
9836;SDS011;4957;51.412;6.724;2022-12-07T00:51:25;15.70;;;11.17;;
9836;SDS011;4957;51.412;6.724;2022-12-07T00:53:51;15.17;;;10.90;;
9836;SDS011;4957;51.412;6.724;2022-12-07T00:56:18;16.20;;;11.90;;
9836;SDS011;4957;51.412;6.724;2022-12-07T00:58:51;17.73;;;12.53;;
9836;SDS011;4957;51.412;6.724;2022-12-07T01:01:18;17.87;;;11.97;;
9836;SDS011;4957;51.412;6.724;2022-12-07T01:03:47;16.37;;;12.47;;
9836;SDS011;4957;51.412;6.724;2022-12-07T01:06:14;19.10;;;12.33;;
9836;SDS011;4957;51.412;6.724;2022-12-07T01:08:41;17.87;;;12.23;;
9836;SDS011;4957;51.412;6.724;2022-12-07T01:11:07;16.80;;;12.00;;
9836;SDS011;4957;51.412;6.724;2022-12-07T01:13:36;14.97;;;11.90;;
9836;SDS011;4957;51.412;6.724;2022-12-07T01:16:03;17.47;;;12.20;;
9836;SDS011;4957;51.412;6.724;2022-12-07T01:18:31;21.10;;;12.23;;
9836;SDS011;4957;51.412;6.724;2022-12-07T01:20:59;19.97;;;11.87;;
9836;SDS011;4957;51.412;6.724;2022-12-07T01:23:26;19.03;;;13.10;;
9836;SDS011;4957;51.412;6.724;2022-12-07T01:25:59;16.60;;;11.87;;
9836;SDS011;4957;51.412;6.724;2022-12-07T01:28:27;15.43;;;10.77;;
9836;SDS011;4957;51.412;6.724;2022-12-07T01:30:57;14.97;;;11.77;;
9836;SDS011;4957;51.412;6.724;2022-12-07T01:33:26;17.63;;;11.80;;
9836;SDS011;4957;51.412;6.724;2022-12-07T01:36:00;19.33;;;12.43;;
9836;SDS011;4957;51.412;6.724;2022-12-07T01:38:28;17.97;;;11.40;;
9836;SDS011;4957;51.412;6.724;2022-12-07T01:40:55;18.57;;;12.30;;
9836;SDS011;4957;51.412;6.724;2022-12-07T01:43:22;21.73;;;12.17;;
9836;SDS011;4957;51.412;6.724;2022-12-07T01:45:50;16.00;;;11.57;;
9836;SDS011;4957;51.412;6.724;2022-12-07T01:48:17;16.93;;;10.77;;
9836;SDS011;4957;51.412;6.724;2022-12-07T01:50:48;16.37;;;11.13;;
9836;SDS011;4957;51.412;6.724;2022-12-07T01:53:17;18.57;;;13.17;;
9836;SDS011;4957;51.412;6.724;2022-12-07T01:55:44;17.83;;;12.53;;
9836;SDS011;4957;51.412;6.724;2022-12-07T01:58:12;18.80;;;11.63;;
9836;SDS011;4957;51.412;6.724;2022-12-07T02:00:40;17.63;;;11.60;;
9836;SDS011;4957;51.412;6.724;2022-12-07T02:03:08;19.97;;;11.83;;
9836;SDS011;4957;51.412;6.724;2022-12-07T02:05:38;15.83;;;11.00;;
9836;SDS011;4957;51.412;6.724;2022-12-07T02:08:06;15.97;;;11.17;;
9836;SDS011;4957;51.412;6.724;2022-12-07T02:10:33;17.40;;;10.90;;
9836;SDS011;4957;51.412;6.724;2022-12-07T02:13:06;17.50;;;11.27;;
9836;SDS011;4957;51.412;6.724;2022-12-07T02:15:50;18.20;;;11.13;;
9836;SDS011;4957;51.412;6.724;2022-12-07T02:21:55;14.33;;;10.40;;
9836;SDS011;4957;51.412;6.724;2022-12-07T02:24:58;16.47;;;11.90;;
9836;SDS011;4957;51.412;6.724;2022-12-07T02:30:17;18.70;;;11.00;;
9836;SDS011;4957;51.412;6.724;2022-12-07T02:33:46;17.13;;;11.50;;
9836;SDS011;4957;51.412;6.724;2022-12-07T02:38:38;16.00;;;11.90;;
9836;SDS011;4957;51.412;6.724;2022-12-07T02:41:15;16.60;;;11.33;;
9836;SDS011;4957;51.412;6.724;2022-12-07T02:43:57;16.00;;;11.47;;
9836;SDS011;4957;51.412;6.724;2022-12-07T02:46:28;17.17;;;11.63;;
9836;SDS011;4957;51.412;6.724;2022-12-07T02:48:57;16.40;;;11.30;;
9836;SDS011;4957;51.412;6.724;2022-12-07T02:51:29;17.40;;;10.97;;
9836;SDS011;4957;51.412;6.724;2022-12-07T02:53:56;19.73;;;12.03;;
9836;SDS011;4957;51.412;6.724;2022-12-07T03:07:32;15.17;;;10.70;;
9836;SDS011;4957;51.412;6.724;2022-12-07T03:15:29;14.80;;;10.53;;
9836;SDS011;4957;51.412;6.724;2022-12-07T03:18:16;15.53;;;11.13;;
9836;SDS011;4957;51.412;6.724;2022-12-07T03:20:45;21.40;;;11.53;;
9836;SDS011;4957;51.412;6.724;2022-12-07T03:23:13;17.70;;;11.03;;
9836;SDS011;4957;51.412;6.724;2022-12-07T03:25:43;15.77;;;10.57;;
9836;SDS011;4957;51.412;6.724;2022-12-07T03:28:13;18.10;;;10.77;;
9836;SDS011;4957;51.412;6.724;2022-12-07T03:30:44;13.73;;;9.60;;
9836;SDS011;4957;51.412;6.724;2022-12-07T03:33:21;18.37;;;10.50;;
9836;SDS011;4957;51.412;6.724;2022-12-07T03:35:51;14.03;;;10.20;;
9836;SDS011;4957;51.412;6.724;2022-12-07T03:38:38;15.87;;;9.83;;
9836;SDS011;4957;51.412;6.724;2022-12-07T03:41:29;15.03;;;10.27;;
9836;SDS011;4957;51.412;6.724;2022-12-07T03:43:58;15.40;;;10.77;;
9836;SDS011;4957;51.412;6.724;2022-12-07T03:46:38;14.03;;;10.07;;
9836;SDS011;4957;51.412;6.724;2022-12-07T03:49:28;15.27;;;10.13;;
9836;SDS011;4957;51.412;6.724;2022-12-07T03:55:05;18.80;;;11.47;;
9836;SDS011;4957;51.412;6.724;2022-12-07T03:57:51;18.07;;;10.87;;
9836;SDS011;4957;51.412;6.724;2022-12-07T04:00:21;17.73;;;11.10;;
9836;SDS011;4957;51.412;6.724;2022-12-07T04:02:47;18.93;;;10.70;;
9836;SDS011;4957;51.412;6.724;2022-12-07T04:05:12;19.30;;;11.63;;
9836;SDS011;4957;51.412;6.724;2022-12-07T04:07:38;19.47;;;11.50;;
9836;SDS011;4957;51.412;6.724;2022-12-07T04:10:05;19.80;;;12.30;;
9836;SDS011;4957;51.412;6.724;2022-12-07T04:12:31;18.93;;;12.20;;
9836;SDS011;4957;51.412;6.724;2022-12-07T04:14:57;20.27;;;12.70;;
9836;SDS011;4957;51.412;6.724;2022-12-07T04:17:22;15.70;;;10.83;;
9836;SDS011;4957;51.412;6.724;2022-12-07T04:19:48;15.53;;;11.30;;
9836;SDS011;4957;51.412;6.724;2022-12-07T04:22:14;14.70;;;10.60;;
9836;SDS011;4957;51.412;6.724;2022-12-07T04:24:40;17.93;;;11.43;;
9836;SDS011;4957;51.412;6.724;2022-12-07T04:27:05;14.23;;;10.07;;
9836;SDS011;4957;51.412;6.724;2022-12-07T04:29:31;18.30;;;11.87;;
9836;SDS011;4957;51.412;6.724;2022-12-07T04:31:57;17.07;;;10.80;;
9836;SDS011;4957;51.412;6.724;2022-12-07T04:34:22;16.67;;;10.83;;
9836;SDS011;4957;51.412;6.724;2022-12-07T04:36:48;14.73;;;9.90;;
9836;SDS011;4957;51.412;6.724;2022-12-07T04:39:19;19.00;;;11.67;;
9836;SDS011;4957;51.412;6.724;2022-12-07T04:41:52;14.33;;;10.17;;
9836;SDS011;4957;51.412;6.724;2022-12-07T04:44:18;17.67;;;10.77;;
9836;SDS011;4957;51.412;6.724;2022-12-07T04:46:45;16.23;;;9.93;;
9836;SDS011;4957;51.412;6.724;2022-12-07T04:49:12;19.77;;;10.93;;
9836;SDS011;4957;51.412;6.724;2022-12-07T04:51:39;20.30;;;11.00;;
9836;SDS011;4957;51.412;6.724;2022-12-07T04:54:05;16.37;;;9.63;;
9836;SDS011;4957;51.412;6.724;2022-12-07T04:56:31;18.10;;;10.90;;
9836;SDS011;4957;51.412;6.724;2022-12-07T04:58:57;17.70;;;10.37;;
9836;SDS011;4957;51.412;6.724;2022-12-07T05:01:23;15.27;;;9.53;;
9836;SDS011;4957;51.412;6.724;2022-12-07T05:03:49;16.70;;;9.73;;
9836;SDS011;4957;51.412;6.724;2022-12-07T05:06:15;16.93;;;10.40;;
9836;SDS011;4957;51.412;6.724;2022-12-07T05:08:41;16.17;;;10.27;;
9836;SDS011;4957;51.412;6.724;2022-12-07T05:11:08;14.03;;;10.63;;
9836;SDS011;4957;51.412;6.724;2022-12-07T05:13:34;18.20;;;10.27;;
9836;SDS011;4957;51.412;6.724;2022-12-07T05:16:01;16.23;;;10.10;;
9836;SDS011;4957;51.412;6.724;2022-12-07T05:18:26;17.03;;;10.47;;
9836;SDS011;4957;51.412;6.724;2022-12-07T05:20:52;14.70;;;9.70;;
9836;SDS011;4957;51.412;6.724;2022-12-07T05:23:18;14.60;;;10.00;;
9836;SDS011;4957;51.412;6.724;2022-12-07T05:25:44;19.40;;;10.83;;
9836;SDS011;4957;51.412;6.724;2022-12-07T05:28:10;17.57;;;10.10;;
9836;SDS011;4957;51.412;6.724;2022-12-07T05:30:36;14.10;;;8.77;;
9836;SDS011;4957;51.412;6.724;2022-12-07T05:33:01;17.23;;;10.60;;
9836;SDS011;4957;51.412;6.724;2022-12-07T05:35:28;15.57;;;9.70;;
9836;SDS011;4957;51.412;6.724;2022-12-07T05:37:54;15.50;;;9.80;;
9836;SDS011;4957;51.412;6.724;2022-12-07T05:40:20;12.93;;;9.00;;
9836;SDS011;4957;51.412;6.724;2022-12-07T05:42:46;15.63;;;10.33;;
9836;SDS011;4957;51.412;6.724;2022-12-07T05:45:12;12.80;;;9.00;;
9836;SDS011;4957;51.412;6.724;2022-12-07T05:47:38;15.80;;;9.40;;
9836;SDS011;4957;51.412;6.724;2022-12-07T05:50:04;15.43;;;9.13;;
9836;SDS011;4957;51.412;6.724;2022-12-07T05:52:31;17.90;;;10.47;;
9836;SDS011;4957;51.412;6.724;2022-12-07T05:54:57;16.23;;;9.30;;
9836;SDS011;4957;51.412;6.724;2022-12-07T05:57:23;17.47;;;9.67;;
9836;SDS011;4957;51.412;6.724;2022-12-07T05:59:49;19.70;;;10.20;;
9836;SDS011;4957;51.412;6.724;2022-12-07T06:02:15;17.03;;;10.07;;
9836;SDS011;4957;51.412;6.724;2022-12-07T06:04:42;16.30;;;9.37;;
9836;SDS011;4957;51.412;6.724;2022-12-07T06:07:10;18.17;;;9.97;;
9836;SDS011;4957;51.412;6.724;2022-12-07T06:09:37;15.53;;;9.83;;
9836;SDS011;4957;51.412;6.724;2022-12-07T06:12:03;14.83;;;9.93;;
9836;SDS011;4957;51.412;6.724;2022-12-07T06:14:47;12.23;;;8.73;;
9836;SDS011;4957;51.412;6.724;2022-12-07T06:17:13;13.70;;;9.47;;
9836;SDS011;4957;51.412;6.724;2022-12-07T06:19:39;15.10;;;9.37;;
9836;SDS011;4957;51.412;6.724;2022-12-07T06:22:06;16.43;;;9.30;;
9836;SDS011;4957;51.412;6.724;2022-12-07T06:24:32;20.00;;;10.33;;
9836;SDS011;4957;51.412;6.724;2022-12-07T06:26:59;13.63;;;9.10;;
9836;SDS011;4957;51.412;6.724;2022-12-07T06:29:25;13.73;;;8.37;;
9836;SDS011;4957;51.412;6.724;2022-12-07T06:31:50;13.50;;;9.53;;
9836;SDS011;4957;51.412;6.724;2022-12-07T06:34:18;16.07;;;9.60;;
9836;SDS011;4957;51.412;6.724;2022-12-07T06:36:45;15.43;;;9.27;;
9836;SDS011;4957;51.412;6.724;2022-12-07T06:39:16;15.77;;;9.23;;
9836;SDS011;4957;51.412;6.724;2022-12-07T06:41:46;18.47;;;9.43;;
9836;SDS011;4957;51.412;6.724;2022-12-07T06:44:12;16.47;;;9.73;;
9836;SDS011;4957;51.412;6.724;2022-12-07T06:46:38;15.33;;;9.30;;
9836;SDS011;4957;51.412;6.724;2022-12-07T06:49:04;12.40;;;8.87;;
9836;SDS011;4957;51.412;6.724;2022-12-07T06:51:31;19.57;;;8.90;;
9836;SDS011;4957;51.412;6.724;2022-12-07T06:53:57;13.50;;;8.47;;
9836;SDS011;4957;51.412;6.724;2022-12-07T06:56:23;13.03;;;8.20;;
9836;SDS011;4957;51.412;6.724;2022-12-07T06:58:49;15.67;;;8.67;;
9836;SDS011;4957;51.412;6.724;2022-12-07T07:01:15;12.63;;;7.67;;
9836;SDS011;4957;51.412;6.724;2022-12-07T07:03:43;12.00;;;8.20;;
9836;SDS011;4957;51.412;6.724;2022-12-07T07:06:10;13.20;;;7.80;;
9836;SDS011;4957;51.412;6.724;2022-12-07T07:08:37;11.93;;;7.60;;
9836;SDS011;4957;51.412;6.724;2022-12-07T07:11:03;12.53;;;8.47;;
9836;SDS011;4957;51.412;6.724;2022-12-07T07:13:30;14.47;;;8.77;;
9836;SDS011;4957;51.412;6.724;2022-12-07T07:15:55;11.80;;;8.10;;
9836;SDS011;4957;51.412;6.724;2022-12-07T07:18:22;9.93;;;5.97;;
9836;SDS011;4957;51.412;6.724;2022-12-07T07:20:49;10.97;;;6.70;;
9836;SDS011;4957;51.412;6.724;2022-12-07T07:23:16;8.93;;;7.03;;
9836;SDS011;4957;51.412;6.724;2022-12-07T07:25:42;10.07;;;6.40;;
9836;SDS011;4957;51.412;6.724;2022-12-07T07:28:07;12.27;;;7.33;;
9836;SDS011;4957;51.412;6.724;2022-12-07T07:30:33;8.60;;;6.23;;
9836;SDS011;4957;51.412;6.724;2022-12-07T07:32:59;10.17;;;7.30;;
9836;SDS011;4957;51.412;6.724;2022-12-07T07:35:26;10.93;;;6.33;;
9836;SDS011;4957;51.412;6.724;2022-12-07T07:37:53;10.17;;;5.70;;
9836;SDS011;4957;51.412;6.724;2022-12-07T07:40:19;14.50;;;7.20;;
9836;SDS011;4957;51.412;6.724;2022-12-07T07:42:52;13.07;;;6.93;;
9836;SDS011;4957;51.412;6.724;2022-12-07T07:45:19;15.97;;;8.47;;
9836;SDS011;4957;51.412;6.724;2022-12-07T07:47:46;11.97;;;7.07;;
9836;SDS011;4957;51.412;6.724;2022-12-07T07:50:12;11.27;;;7.53;;
9836;SDS011;4957;51.412;6.724;2022-12-07T07:52:38;11.97;;;5.87;;
9836;SDS011;4957;51.412;6.724;2022-12-07T07:55:05;8.23;;;5.00;;
9836;SDS011;4957;51.412;6.724;2022-12-07T07:57:33;11.40;;;7.30;;
9836;SDS011;4957;51.412;6.724;2022-12-07T08:00:03;16.97;;;7.63;;
9836;SDS011;4957;51.412;6.724;2022-12-07T08:02:31;9.37;;;7.00;;
9836;SDS011;4957;51.412;6.724;2022-12-07T08:04:57;13.50;;;8.07;;
9836;SDS011;4957;51.412;6.724;2022-12-07T08:07:22;15.67;;;7.60;;
9836;SDS011;4957;51.412;6.724;2022-12-07T08:09:48;10.97;;;7.17;;
9836;SDS011;4957;51.412;6.724;2022-12-07T08:12:14;12.83;;;7.90;;
9836;SDS011;4957;51.412;6.724;2022-12-07T08:14:39;12.10;;;7.50;;
9836;SDS011;4957;51.412;6.724;2022-12-07T08:17:06;10.13;;;7.57;;
9836;SDS011;4957;51.412;6.724;2022-12-07T08:19:32;15.97;;;7.80;;
9836;SDS011;4957;51.412;6.724;2022-12-07T08:21:58;13.50;;;7.33;;
9836;SDS011;4957;51.412;6.724;2022-12-07T08:24:24;15.10;;;6.77;;
9836;SDS011;4957;51.412;6.724;2022-12-07T08:26:50;14.60;;;7.97;;
9836;SDS011;4957;51.412;6.724;2022-12-07T08:29:16;10.70;;;7.50;;
9836;SDS011;4957;51.412;6.724;2022-12-07T08:31:42;16.57;;;7.40;;
9836;SDS011;4957;51.412;6.724;2022-12-07T08:34:09;13.17;;;6.93;;
9836;SDS011;4957;51.412;6.724;2022-12-07T08:36:36;11.33;;;6.93;;
9836;SDS011;4957;51.412;6.724;2022-12-07T08:39:02;13.10;;;7.20;;
9836;SDS011;4957;51.412;6.724;2022-12-07T08:41:27;21.87;;;6.37;;
9836;SDS011;4957;51.412;6.724;2022-12-07T08:43:53;11.93;;;5.70;;
9836;SDS011;4957;51.412;6.724;2022-12-07T08:46:20;9.10;;;6.40;;
9836;SDS011;4957;51.412;6.724;2022-12-07T08:48:52;11.97;;;7.00;;
9836;SDS011;4957;51.412;6.724;2022-12-07T08:51:41;15.63;;;7.63;;
9836;SDS011;4957;51.412;6.724;2022-12-07T08:54:08;9.73;;;6.80;;
9836;SDS011;4957;51.412;6.724;2022-12-07T08:56:36;9.73;;;6.97;;
9836;SDS011;4957;51.412;6.724;2022-12-07T08:59:02;14.50;;;6.97;;
9836;SDS011;4957;51.412;6.724;2022-12-07T09:01:29;17.97;;;7.23;;
9836;SDS011;4957;51.412;6.724;2022-12-07T09:03:55;11.67;;;6.90;;
9836;SDS011;4957;51.412;6.724;2022-12-07T09:06:21;13.10;;;6.70;;
9836;SDS011;4957;51.412;6.724;2022-12-07T09:08:47;12.37;;;6.77;;
9836;SDS011;4957;51.412;6.724;2022-12-07T09:11:16;12.83;;;7.20;;
9836;SDS011;4957;51.412;6.724;2022-12-07T09:13:42;14.63;;;8.40;;
9836;SDS011;4957;51.412;6.724;2022-12-07T09:16:07;13.47;;;7.77;;
9836;SDS011;4957;51.412;6.724;2022-12-07T09:18:33;13.33;;;8.47;;
9836;SDS011;4957;51.412;6.724;2022-12-07T09:20:59;17.77;;;8.97;;
9836;SDS011;4957;51.412;6.724;2022-12-07T09:23:26;15.23;;;8.33;;
9836;SDS011;4957;51.412;6.724;2022-12-07T09:25:52;15.30;;;7.77;;
9836;SDS011;4957;51.412;6.724;2022-12-07T09:28:18;9.87;;;6.77;;
9836;SDS011;4957;51.412;6.724;2022-12-07T09:30:46;12.47;;;7.30;;
9836;SDS011;4957;51.412;6.724;2022-12-07T09:33:13;14.47;;;7.50;;
9836;SDS011;4957;51.412;6.724;2022-12-07T09:35:46;10.57;;;7.83;;
9836;SDS011;4957;51.412;6.724;2022-12-07T09:38:12;14.20;;;7.70;;
9836;SDS011;4957;51.412;6.724;2022-12-07T09:40:38;12.53;;;7.87;;
9836;SDS011;4957;51.412;6.724;2022-12-07T09:43:05;14.13;;;7.20;;
9836;SDS011;4957;51.412;6.724;2022-12-07T09:45:37;11.33;;;6.10;;
9836;SDS011;4957;51.412;6.724;2022-12-07T09:48:03;12.97;;;6.10;;
9836;SDS011;4957;51.412;6.724;2022-12-07T09:50:30;17.13;;;7.13;;
9836;SDS011;4957;51.412;6.724;2022-12-07T09:53:03;14.63;;;7.53;;
9836;SDS011;4957;51.412;6.724;2022-12-07T09:55:38;13.90;;;7.37;;
9836;SDS011;4957;51.412;6.724;2022-12-07T09:58:06;15.93;;;8.57;;
9836;SDS011;4957;51.412;6.724;2022-12-07T10:00:36;15.83;;;10.43;;
9836;SDS011;4957;51.412;6.724;2022-12-07T10:03:02;18.23;;;10.27;;
9836;SDS011;4957;51.412;6.724;2022-12-07T10:05:39;17.23;;;8.87;;
9836;SDS011;4957;51.412;6.724;2022-12-07T10:08:08;25.67;;;9.97;;
9836;SDS011;4957;51.412;6.724;2022-12-07T10:10:36;14.70;;;7.93;;
9836;SDS011;4957;51.412;6.724;2022-12-07T10:13:10;17.20;;;8.43;;
9836;SDS011;4957;51.412;6.724;2022-12-07T10:15:45;10.50;;;7.03;;
9836;SDS011;4957;51.412;6.724;2022-12-07T10:21:04;13.43;;;7.03;;
9836;SDS011;4957;51.412;6.724;2022-12-07T10:23:35;19.43;;;7.30;;
9836;SDS011;4957;51.412;6.724;2022-12-07T10:28:53;15.73;;;7.13;;
9836;SDS011;4957;51.412;6.724;2022-12-07T10:31:20;11.00;;;6.27;;
9836;SDS011;4957;51.412;6.724;2022-12-07T10:36:19;10.80;;;5.90;;
9836;SDS011;4957;51.412;6.724;2022-12-07T10:38:52;10.70;;;6.40;;
9836;SDS011;4957;51.412;6.724;2022-12-07T10:41:25;12.90;;;5.13;;
9836;SDS011;4957;51.412;6.724;2022-12-07T10:43:52;16.80;;;6.17;;
9836;SDS011;4957;51.412;6.724;2022-12-07T10:49:08;8.87;;;4.40;;
9836;SDS011;4957;51.412;6.724;2022-12-07T11:00:31;6.53;;;4.23;;
9836;SDS011;4957;51.412;6.724;2022-12-07T11:11:12;9.47;;;5.30;;
9836;SDS011;4957;51.412;6.724;2022-12-07T11:16:23;11.67;;;5.10;;
9836;SDS011;4957;51.412;6.724;2022-12-07T11:19:06;9.40;;;4.60;;
9836;SDS011;4957;51.412;6.724;2022-12-07T11:21:56;7.47;;;4.03;;
9836;SDS011;4957;51.412;6.724;2022-12-07T11:24:43;7.60;;;4.50;;
9836;SDS011;4957;51.412;6.724;2022-12-07T11:30:03;6.70;;;3.47;;
9836;SDS011;4957;51.412;6.724;2022-12-07T11:38:17;9.03;;;4.00;;
9836;SDS011;4957;51.412;6.724;2022-12-07T11:40:48;6.40;;;3.83;;
9836;SDS011;4957;51.412;6.724;2022-12-07T11:43:30;6.13;;;3.23;;
9836;SDS011;4957;51.412;6.724;2022-12-07T11:48:38;4.50;;;3.60;;
9836;SDS011;4957;51.412;6.724;2022-12-07T11:51:09;6.57;;;3.27;;
9836;SDS011;4957;51.412;6.724;2022-12-07T11:53:42;4.83;;;3.20;;
9836;SDS011;4957;51.412;6.724;2022-12-07T11:56:15;9.80;;;3.13;;
9836;SDS011;4957;51.412;6.724;2022-12-07T11:58:57;5.80;;;3.33;;
9836;SDS011;4957;51.412;6.724;2022-12-07T12:06:35;6.30;;;2.80;;
9836;SDS011;4957;51.412;6.724;2022-12-07T12:09:19;6.33;;;2.47;;
9836;SDS011;4957;51.412;6.724;2022-12-07T12:17:30;6.97;;;2.97;;
9836;SDS011;4957;51.412;6.724;2022-12-07T12:23:05;4.67;;;2.57;;
9836;SDS011;4957;51.412;6.724;2022-12-07T12:28:27;5.57;;;2.53;;
9836;SDS011;4957;51.412;6.724;2022-12-07T12:31:14;7.47;;;2.57;;
9836;SDS011;4957;51.412;6.724;2022-12-07T12:33:57;7.23;;;2.77;;
9836;SDS011;4957;51.412;6.724;2022-12-07T12:36:46;6.40;;;3.00;;
9836;SDS011;4957;51.412;6.724;2022-12-07T12:47:00;3.83;;;1.47;;
9836;SDS011;4957;51.412;6.724;2022-12-07T12:57:35;2.03;;;1.30;;
9836;SDS011;4957;51.412;6.724;2022-12-07T13:00:21;4.27;;;2.20;;
9836;SDS011;4957;51.412;6.724;2022-12-07T13:02:53;4.47;;;1.67;;
9836;SDS011;4957;51.412;6.724;2022-12-07T13:05:21;6.00;;;2.20;;
9836;SDS011;4957;51.412;6.724;2022-12-07T13:13:31;5.07;;;2.60;;
9836;SDS011;4957;51.412;6.724;2022-12-07T13:15:44;11.97;;;3.13;;
9836;SDS011;4957;51.412;6.724;2022-12-07T13:28:58;6.20;;;3.00;;
9836;SDS011;4957;51.412;6.724;2022-12-07T13:31:37;7.00;;;2.83;;
9836;SDS011;4957;51.412;6.724;2022-12-07T13:34:27;5.07;;;3.13;;
9836;SDS011;4957;51.412;6.724;2022-12-07T13:37:00;15.10;;;3.37;;
9836;SDS011;4957;51.412;6.724;2022-12-07T13:39:47;8.43;;;3.13;;
9836;SDS011;4957;51.412;6.724;2022-12-07T13:42:26;8.27;;;3.27;;
9836;SDS011;4957;51.412;6.724;2022-12-07T13:44:53;7.73;;;2.37;;
9836;SDS011;4957;51.412;6.724;2022-12-07T13:52:57;15.50;;;2.77;;
9836;SDS011;4957;51.412;6.724;2022-12-07T13:55:25;6.87;;;2.27;;
9836;SDS011;4957;51.412;6.724;2022-12-07T13:57:52;8.20;;;2.07;;
9836;SDS011;4957;51.412;6.724;2022-12-07T14:00:24;3.97;;;1.87;;
9836;SDS011;4957;51.412;6.724;2022-12-07T14:02:55;7.20;;;1.90;;
9836;SDS011;4957;51.412;6.724;2022-12-07T14:05:42;2.57;;;1.83;;
9836;SDS011;4957;51.412;6.724;2022-12-07T14:10:52;7.30;;;2.70;;
9836;SDS011;4957;51.412;6.724;2022-12-07T14:15:59;8.70;;;2.40;;
9836;SDS011;4957;51.412;6.724;2022-12-07T14:18:37;5.27;;;2.17;;
9836;SDS011;4957;51.412;6.724;2022-12-07T14:23:36;5.50;;;1.83;;
9836;SDS011;4957;51.412;6.724;2022-12-07T14:26:07;5.83;;;2.27;;
9836;SDS011;4957;51.412;6.724;2022-12-07T14:28:38;9.17;;;1.80;;
9836;SDS011;4957;51.412;6.724;2022-12-07T14:31:12;7.77;;;2.07;;
9836;SDS011;4957;51.412;6.724;2022-12-07T14:33:40;5.80;;;2.10;;
9836;SDS011;4957;51.412;6.724;2022-12-07T14:36:13;5.70;;;2.10;;
9836;SDS011;4957;51.412;6.724;2022-12-07T14:38:39;5.73;;;2.37;;
9836;SDS011;4957;51.412;6.724;2022-12-07T14:41:15;5.70;;;2.03;;
9836;SDS011;4957;51.412;6.724;2022-12-07T14:44:11;4.93;;;1.83;;
9836;SDS011;4957;51.412;6.724;2022-12-07T14:46:37;7.07;;;2.33;;
9836;SDS011;4957;51.412;6.724;2022-12-07T14:49:03;7.13;;;2.20;;
9836;SDS011;4957;51.412;6.724;2022-12-07T14:51:30;5.93;;;2.40;;
9836;SDS011;4957;51.412;6.724;2022-12-07T14:53:56;3.53;;;1.63;;
9836;SDS011;4957;51.412;6.724;2022-12-07T14:56:22;4.87;;;2.20;;
9836;SDS011;4957;51.412;6.724;2022-12-07T14:58:47;5.43;;;2.50;;
9836;SDS011;4957;51.412;6.724;2022-12-07T15:01:14;5.33;;;2.50;;
9836;SDS011;4957;51.412;6.724;2022-12-07T15:03:39;5.43;;;2.30;;
9836;SDS011;4957;51.412;6.724;2022-12-07T15:06:05;5.63;;;2.10;;
9836;SDS011;4957;51.412;6.724;2022-12-07T15:08:32;4.33;;;2.43;;
9836;SDS011;4957;51.412;6.724;2022-12-07T15:10:58;7.97;;;2.87;;
9836;SDS011;4957;51.412;6.724;2022-12-07T15:13:24;4.93;;;2.10;;
9836;SDS011;4957;51.412;6.724;2022-12-07T15:16:12;4.57;;;2.53;;
9836;SDS011;4957;51.412;6.724;2022-12-07T15:18:41;6.83;;;3.00;;
9836;SDS011;4957;51.412;6.724;2022-12-07T15:21:10;8.57;;;2.33;;
9836;SDS011;4957;51.412;6.724;2022-12-07T15:23:39;5.90;;;2.43;;
9836;SDS011;4957;51.412;6.724;2022-12-07T15:26:05;7.37;;;2.93;;
9836;SDS011;4957;51.412;6.724;2022-12-07T15:28:30;10.97;;;3.73;;
9836;SDS011;4957;51.412;6.724;2022-12-07T15:30:56;10.23;;;3.90;;
9836;SDS011;4957;51.412;6.724;2022-12-07T15:33:22;7.33;;;3.77;;
9836;SDS011;4957;51.412;6.724;2022-12-07T15:35:47;6.40;;;4.00;;
9836;SDS011;4957;51.412;6.724;2022-12-07T15:38:13;7.53;;;3.27;;
9836;SDS011;4957;51.412;6.724;2022-12-07T15:40:39;14.33;;;4.17;;
9836;SDS011;4957;51.412;6.724;2022-12-07T15:43:05;9.97;;;3.43;;
9836;SDS011;4957;51.412;6.724;2022-12-07T15:45:53;4.00;;;3.10;;
9836;SDS011;4957;51.412;6.724;2022-12-07T15:48:18;5.33;;;3.40;;
9836;SDS011;4957;51.412;6.724;2022-12-07T15:50:44;7.27;;;3.33;;
9836;SDS011;4957;51.412;6.724;2022-12-07T15:53:10;9.53;;;3.43;;
9836;SDS011;4957;51.412;6.724;2022-12-07T15:55:38;6.87;;;3.53;;
9836;SDS011;4957;51.412;6.724;2022-12-07T15:58:04;7.23;;;3.13;;
9836;SDS011;4957;51.412;6.724;2022-12-07T16:00:30;7.20;;;3.50;;
9836;SDS011;4957;51.412;6.724;2022-12-07T16:02:56;7.63;;;3.80;;
9836;SDS011;4957;51.412;6.724;2022-12-07T16:05:22;9.07;;;3.60;;
9836;SDS011;4957;51.412;6.724;2022-12-07T16:07:47;6.00;;;3.17;;
9836;SDS011;4957;51.412;6.724;2022-12-07T16:10:13;5.57;;;3.13;;
9836;SDS011;4957;51.412;6.724;2022-12-07T16:12:39;9.87;;;3.60;;
9836;SDS011;4957;51.412;6.724;2022-12-07T16:15:05;6.10;;;3.40;;
9836;SDS011;4957;51.412;6.724;2022-12-07T16:17:31;7.23;;;3.50;;
9836;SDS011;4957;51.412;6.724;2022-12-07T16:19:57;7.40;;;3.47;;
9836;SDS011;4957;51.412;6.724;2022-12-07T16:22:23;5.33;;;2.90;;
9836;SDS011;4957;51.412;6.724;2022-12-07T16:24:49;12.47;;;3.40;;
9836;SDS011;4957;51.412;6.724;2022-12-07T16:27:14;6.70;;;3.00;;
9836;SDS011;4957;51.412;6.724;2022-12-07T16:29:40;10.03;;;3.00;;
9836;SDS011;4957;51.412;6.724;2022-12-07T16:32:06;6.73;;;3.10;;
9836;SDS011;4957;51.412;6.724;2022-12-07T16:34:32;4.87;;;2.70;;
9836;SDS011;4957;51.412;6.724;2022-12-07T16:36:57;7.13;;;2.40;;
9836;SDS011;4957;51.412;6.724;2022-12-07T16:39:23;5.03;;;2.87;;
9836;SDS011;4957;51.412;6.724;2022-12-07T16:41:49;9.00;;;2.80;;
9836;SDS011;4957;51.412;6.724;2022-12-07T16:44:15;8.57;;;3.07;;
9836;SDS011;4957;51.412;6.724;2022-12-07T16:46:41;9.03;;;3.10;;
9836;SDS011;4957;51.412;6.724;2022-12-07T16:49:10;6.30;;;2.90;;
9836;SDS011;4957;51.412;6.724;2022-12-07T16:51:40;8.03;;;2.43;;
9836;SDS011;4957;51.412;6.724;2022-12-07T16:54:09;11.13;;;3.37;;
9836;SDS011;4957;51.412;6.724;2022-12-07T16:56:35;6.87;;;2.83;;
9836;SDS011;4957;51.412;6.724;2022-12-07T16:59:01;9.17;;;3.07;;
9836;SDS011;4957;51.412;6.724;2022-12-07T17:01:27;6.73;;;3.40;;
9836;SDS011;4957;51.412;6.724;2022-12-07T17:03:53;8.00;;;3.03;;
9836;SDS011;4957;51.412;6.724;2022-12-07T17:06:21;9.70;;;4.03;;
9836;SDS011;4957;51.412;6.724;2022-12-07T17:08:49;8.10;;;4.00;;
9836;SDS011;4957;51.412;6.724;2022-12-07T17:11:26;4.67;;;3.03;;
9836;SDS011;4957;51.412;6.724;2022-12-07T17:13:53;7.10;;;3.50;;
9836;SDS011;4957;51.412;6.724;2022-12-07T17:16:38;5.67;;;3.20;;
9836;SDS011;4957;51.412;6.724;2022-12-07T17:19:04;7.20;;;3.50;;
9836;SDS011;4957;51.412;6.724;2022-12-07T17:21:35;8.00;;;3.20;;
9836;SDS011;4957;51.412;6.724;2022-12-07T17:24:02;5.83;;;2.67;;